Maxwell, Iowa
Current Conditions -  °F | °C
As of 3:53 PM on Tuesday 21 Oct 2014 (Local Time) from KAMW Reporting Station
Clear Clear  
Wind Chill: 64°   Ceiling: Unl
Heat Index: 64°   Visibility: 10mi
Dew Point: 43°   Wind: 10mph
Humidity: 46%   Direction: 130°SE
Pressure: 30.11"   Gusts: NA
Location:  41.89°N, 93.4°W
Report Text: KAMW 212053Z AUTO 13009KT 10SM CLR 18/06 A3011 RMK AO2 SLP195 T01780061 56013 $
Loading
Personal Weather Stations






























Interactive Weather Map
Tropical Storm Tracking
New forecast layout! Learn more

10-Day Weather Forecast

Advertisements
Track Severe Weather on mobile